sensor_id;sensor_type;location;lat;lon;timestamp;temperature;humidity
37896;DHT22;23733;53.254;10.430;2023-05-08T00:21:33;10.90;99.90
37896;DHT22;23733;53.254;10.430;2023-05-08T00:23:59;10.20;99.90
37896;DHT22;23733;53.254;10.430;2023-05-08T00:26:25;10.20;99.90
37896;DHT22;23733;53.254;10.430;2023-05-08T00:28:51;10.20;99.90
37896;DHT22;23733;53.254;10.430;2023-05-08T00:31:17;10.20;99.90
37896;DHT22;23733;53.254;10.430;2023-05-08T00:33:43;10.20;99.90
37896;DHT22;23733;53.254;10.430;2023-05-08T00:36:10;10.20;99.90
37896;DHT22;23733;53.254;10.430;2023-05-08T00:38:36;10.20;99.90
37896;DHT22;23733;53.254;10.430;2023-05-08T00:41:02;10.10;99.90
37896;DHT22;23733;53.254;10.430;2023-05-08T00:43:28;10.10;99.90
37896;DHT22;23733;53.254;10.430;2023-05-08T00:45:55;10.00;99.90
37896;DHT22;23733;53.254;10.430;2023-05-08T00:48:23;10.00;99.90
37896;DHT22;23733;53.254;10.430;2023-05-08T00:50:51;9.90;99.90
37896;DHT22;23733;53.254;10.430;2023-05-08T00:53:19;9.90;99.90
37896;DHT22;23733;53.254;10.430;2023-05-08T00:55:46;9.90;99.90
37896;DHT22;23733;53.254;10.430;2023-05-08T00:58:13;9.90;99.90
37896;DHT22;23733;53.254;10.430;2023-05-08T01:00:41;9.80;99.90
37896;DHT22;23733;53.254;10.430;2023-05-08T01:03:08;9.80;99.90
37896;DHT22;23733;53.254;10.430;2023-05-08T01:05:35;9.70;99.90
37896;DHT22;23733;53.254;10.430;2023-05-08T01:08:01;9.70;99.90
37896;DHT22;23733;53.254;10.430;2023-05-08T01:10:35;9.70;99.90
37896;DHT22;23733;53.254;10.430;2023-05-08T01:13:32;9.70;99.90
37896;DHT22;23733;53.254;10.430;2023-05-08T01:16:51;9.60;99.90
37896;DHT22;23733;53.254;10.430;2023-05-08T01:19:07;9.50;99.90
37896;DHT22;23733;53.254;10.430;2023-05-08T01:21:44;9.50;99.90
37896;DHT22;23733;53.254;10.430;2023-05-08T01:24:41;9.50;99.90
37896;DHT22;23733;53.254;10.430;2023-05-08T01:30:30;9.40;99.90
37896;DHT22;23733;53.254;10.430;2023-05-08T01:33:12;9.40;99.90
37896;DHT22;23733;53.254;10.430;2023-05-08T01:35:48;9.40;99.90
37896;DHT22;23733;53.254;10.430;2023-05-08T01:38:29;9.30;99.90
37896;DHT22;23733;53.254;10.430;2023-05-08T01:41:06;9.30;99.90
37896;DHT22;23733;53.254;10.430;2023-05-08T01:44:09;9.30;99.90
37896;DHT22;23733;53.254;10.430;2023-05-08T01:46:36;9.20;99.90
37896;DHT22;23733;53.254;10.430;2023-05-08T01:51:43;9.20;99.90
37896;DHT22;23733;53.254;10.430;2023-05-08T01:54:14;9.10;99.90
37896;DHT22;23733;53.254;10.430;2023-05-08T01:56:46;9.10;99.90
37896;DHT22;23733;53.254;10.430;2023-05-08T01:59:16;9.20;99.90
37896;DHT22;23733;53.254;10.430;2023-05-08T02:01:44;9.10;99.90
37896;DHT22;23733;53.254;10.430;2023-05-08T02:04:14;9.10;99.90
37896;DHT22;23733;53.254;10.430;2023-05-08T02:06:41;9.10;99.90
37896;DHT22;23733;53.254;10.430;2023-05-08T02:09:08;9.00;99.90
37896;DHT22;23733;53.254;10.430;2023-05-08T02:11:38;9.00;99.90
37896;DHT22;23733;53.254;10.430;2023-05-08T02:14:05;9.00;99.90
37896;DHT22;23733;53.254;10.430;2023-05-08T02:16:33;9.00;99.90
37896;DHT22;23733;53.254;10.430;2023-05-08T02:19:01;9.00;99.90
37896;DHT22;23733;53.254;10.430;2023-05-08T02:21:28;9.00;99.90
37896;DHT22;23733;53.254;10.430;2023-05-08T02:23:55;8.90;99.90
37896;DHT22;23733;53.254;10.430;2023-05-08T02:26:23;8.80;99.90
37896;DHT22;23733;53.254;10.430;2023-05-08T02:28:52;8.80;99.90
37896;DHT22;23733;53.254;10.430;2023-05-08T02:31:18;8.90;99.90
37896;DHT22;23733;53.254;10.430;2023-05-08T02:33:46;8.80;99.90
37896;DHT22;23733;53.254;10.430;2023-05-08T02:36:15;8.80;99.90
37896;DHT22;23733;53.254;10.430;2023-05-08T02:38:48;8.70;99.90
37896;DHT22;23733;53.254;10.430;2023-05-08T02:41:18;8.70;99.90
37896;DHT22;23733;53.254;10.430;2023-05-08T02:43:45;8.70;99.90
37896;DHT22;23733;53.254;10.430;2023-05-08T02:46:55;8.70;99.90
37896;DHT22;23733;53.254;10.430;2023-05-08T02:49:19;8.70;99.90
37896;DHT22;23733;53.254;10.430;2023-05-08T02:51:59;8.60;99.90
37896;DHT22;23733;53.254;10.430;2023-05-08T02:54:41;8.60;99.90
37896;DHT22;23733;53.254;10.430;2023-05-08T02:57:26;8.60;99.90
37896;DHT22;23733;53.254;10.430;2023-05-08T02:59:59;8.50;99.90
37896;DHT22;23733;53.254;10.430;2023-05-08T03:02:40;8.50;99.90
37896;DHT22;23733;53.254;10.430;2023-05-08T03:05:18;8.50;99.90
37896;DHT22;23733;53.254;10.430;2023-05-08T03:07:50;8.50;99.90
37896;DHT22;23733;53.254;10.430;2023-05-08T03:10:21;8.50;99.90
37896;DHT22;23733;53.254;10.430;2023-05-08T03:12:52;8.40;99.90
37896;DHT22;23733;53.254;10.430;2023-05-08T03:15:35;8.30;99.90
37896;DHT22;23733;53.254;10.430;2023-05-08T03:18:06;8.30;99.90
37896;DHT22;23733;53.254;10.430;2023-05-08T03:20:36;8.30;99.90
37896;DHT22;23733;53.254;10.430;2023-05-08T03:23:05;8.40;99.90
37896;DHT22;23733;53.254;10.430;2023-05-08T03:25:34;8.30;99.90
37896;DHT22;23733;53.254;10.430;2023-05-08T03:28:01;8.30;99.90
37896;DHT22;23733;53.254;10.430;2023-05-08T03:30:30;8.20;99.90
37896;DHT22;23733;53.254;10.430;2023-05-08T03:32:57;8.30;99.90
37896;DHT22;23733;53.254;10.430;2023-05-08T03:35:24;8.30;99.90
37896;DHT22;23733;53.254;10.430;2023-05-08T03:37:52;8.20;99.90
37896;DHT22;23733;53.254;10.430;2023-05-08T03:40:18;8.10;99.90
37896;DHT22;23733;53.254;10.430;2023-05-08T03:42:46;8.20;99.90
37896;DHT22;23733;53.254;10.430;2023-05-08T03:45:13;8.10;99.90
37896;DHT22;23733;53.254;10.430;2023-05-08T03:47:41;8.10;99.90
37896;DHT22;23733;53.254;10.430;2023-05-08T03:50:08;8.00;99.90
37896;DHT22;23733;53.254;10.430;2023-05-08T03:52:34;8.00;99.90
37896;DHT22;23733;53.254;10.430;2023-05-08T03:55:00;8.00;99.90
37896;DHT22;23733;53.254;10.430;2023-05-08T03:57:38;7.90;99.90
37896;DHT22;23733;53.254;10.430;2023-05-08T04:02:55;8.00;99.90
37896;DHT22;23733;53.254;10.430;2023-05-08T04:05:37;7.80;99.90
37896;DHT22;23733;53.254;10.430;2023-05-08T04:08:21;7.80;99.90
37896;DHT22;23733;53.254;10.430;2023-05-08T04:11:05;7.80;99.90
37896;DHT22;23733;53.254;10.430;2023-05-08T04:13:37;7.80;99.90
37896;DHT22;23733;53.254;10.430;2023-05-08T04:16:08;7.80;99.90
37896;DHT22;23733;53.254;10.430;2023-05-08T04:18:37;7.80;99.90
37896;DHT22;23733;53.254;10.430;2023-05-08T04:21:09;7.80;99.90
37896;DHT22;23733;53.254;10.430;2023-05-08T04:23:38;7.80;99.90
37896;DHT22;23733;53.254;10.430;2023-05-08T04:26:05;7.80;99.90
37896;DHT22;23733;53.254;10.430;2023-05-08T04:28:32;7.80;99.90
37896;DHT22;23733;53.254;10.430;2023-05-08T04:31:00;7.80;99.90
37896;DHT22;23733;53.254;10.430;2023-05-08T04:33:28;7.80;99.90
37896;DHT22;23733;53.254;10.430;2023-05-08T04:35:54;7.90;99.90
37896;DHT22;23733;53.254;10.430;2023-05-08T04:38:21;7.90;99.90
37896;DHT22;23733;53.254;10.430;2023-05-08T04:40:47;7.90;99.90
37896;DHT22;23733;53.254;10.430;2023-05-08T04:43:13;7.90;99.90
37896;DHT22;23733;53.254;10.430;2023-05-08T04:45:39;7.80;99.90
37896;DHT22;23733;53.254;10.430;2023-05-08T04:48:05;7.80;99.90
37896;DHT22;23733;53.254;10.430;2023-05-08T04:50:31;7.90;99.90
37896;DHT22;23733;53.254;10.430;2023-05-08T04:52:57;7.90;99.90
37896;DHT22;23733;53.254;10.430;2023-05-08T04:55:23;7.90;99.90
37896;DHT22;23733;53.254;10.430;2023-05-08T04:57:49;7.90;99.90
37896;DHT22;23733;53.254;10.430;2023-05-08T05:00:15;7.90;99.90
37896;DHT22;23733;53.254;10.430;2023-05-08T05:02:42;8.00;99.90
37896;DHT22;23733;53.254;10.430;2023-05-08T05:05:08;8.00;99.90
37896;DHT22;23733;53.254;10.430;2023-05-08T05:07:34;8.10;99.90
37896;DHT22;23733;53.254;10.430;2023-05-08T05:10:00;8.20;99.90
37896;DHT22;23733;53.254;10.430;2023-05-08T05:12:26;8.20;99.90
37896;DHT22;23733;53.254;10.430;2023-05-08T05:14:52;8.30;99.90
37896;DHT22;23733;53.254;10.430;2023-05-08T05:17:18;8.40;99.90
37896;DHT22;23733;53.254;10.430;2023-05-08T05:19:44;8.50;99.90
37896;DHT22;23733;53.254;10.430;2023-05-08T05:22:10;8.60;99.90
37896;DHT22;23733;53.254;10.430;2023-05-08T05:24:36;8.70;99.90
37896;DHT22;23733;53.254;10.430;2023-05-08T05:27:02;8.80;99.90
37896;DHT22;23733;53.254;10.430;2023-05-08T05:29:28;8.90;99.90
37896;DHT22;23733;53.254;10.430;2023-05-08T05:31:55;9.00;99.90
37896;DHT22;23733;53.254;10.430;2023-05-08T05:34:21;9.00;99.90
37896;DHT22;23733;53.254;10.430;2023-05-08T05:36:47;9.10;99.90
37896;DHT22;23733;53.254;10.430;2023-05-08T05:39:13;9.20;99.90
37896;DHT22;23733;53.254;10.430;2023-05-08T05:41:39;9.20;99.90
37896;DHT22;23733;53.254;10.430;2023-05-08T05:44:08;9.10;99.90
37896;DHT22;23733;53.254;10.430;2023-05-08T05:46:35;9.20;99.90
37896;DHT22;23733;53.254;10.430;2023-05-08T05:49:01;9.30;99.90
37896;DHT22;23733;53.254;10.430;2023-05-08T05:51:27;9.40;99.90
37896;DHT22;23733;53.254;10.430;2023-05-08T05:53:54;9.50;99.90
37896;DHT22;23733;53.254;10.430;2023-05-08T05:56:20;9.60;99.90
37896;DHT22;23733;53.254;10.430;2023-05-08T05:58:48;9.70;99.90
37896;DHT22;23733;53.254;10.430;2023-05-08T06:01:14;9.80;99.90
37896;DHT22;23733;53.254;10.430;2023-05-08T06:03:40;9.80;99.90
37896;DHT22;23733;53.254;10.430;2023-05-08T06:06:06;9.80;99.90
37896;DHT22;23733;53.254;10.430;2023-05-08T06:08:32;9.90;99.90
37896;DHT22;23733;53.254;10.430;2023-05-08T06:10:58;9.90;99.90
37896;DHT22;23733;53.254;10.430;2023-05-08T06:13:24;10.00;99.90
37896;DHT22;23733;53.254;10.430;2023-05-08T06:15:50;10.00;99.90
37896;DHT22;23733;53.254;10.430;2023-05-08T06:18:18;10.10;99.90
37896;DHT22;23733;53.254;10.430;2023-05-08T06:20:44;10.20;99.90
37896;DHT22;23733;53.254;10.430;2023-05-08T06:23:10;10.30;99.90
37896;DHT22;23733;53.254;10.430;2023-05-08T06:25:36;10.40;99.90
37896;DHT22;23733;53.254;10.430;2023-05-08T06:28:02;10.30;99.90
37896;DHT22;23733;53.254;10.430;2023-05-08T06:30:31;10.30;99.90
37896;DHT22;23733;53.254;10.430;2023-05-08T06:50:01;10.40;99.90
37896;DHT22;23733;53.254;10.430;2023-05-08T06:52:27;10.80;99.90
37896;DHT22;23733;53.254;10.430;2023-05-08T06:54:54;10.90;99.90
37896;DHT22;23733;53.254;10.430;2023-05-08T06:57:20;11.10;99.90
37896;DHT22;23733;53.254;10.430;2023-05-08T06:59:46;11.30;99.90
37896;DHT22;23733;53.254;10.430;2023-05-08T07:02:12;11.20;99.90
37896;DHT22;23733;53.254;10.430;2023-05-08T07:04:38;11.30;99.90
37896;DHT22;23733;53.254;10.430;2023-05-08T07:07:04;11.50;99.90
37896;DHT22;23733;53.254;10.430;2023-05-08T07:11:57;11.60;99.90
37896;DHT22;23733;53.254;10.430;2023-05-08T07:29:03;11.80;99.90
37896;DHT22;23733;53.254;10.430;2023-05-08T07:31:29;12.00;99.90
37896;DHT22;23733;53.254;10.430;2023-05-08T07:33:55;12.00;99.90
37896;DHT22;23733;53.254;10.430;2023-05-08T07:36:21;12.00;99.90
37896;DHT22;23733;53.254;10.430;2023-05-08T07:38:47;12.10;99.90
37896;DHT22;23733;53.254;10.430;2023-05-08T07:41:13;12.30;99.90
37896;DHT22;23733;53.254;10.430;2023-05-08T07:43:39;12.50;99.90
37896;DHT22;23733;53.254;10.430;2023-05-08T07:46:05;12.50;99.90
37896;DHT22;23733;53.254;10.430;2023-05-08T07:48:31;12.50;99.90
37896;DHT22;23733;53.254;10.430;2023-05-08T07:50:57;12.50;99.90
37896;DHT22;23733;53.254;10.430;2023-05-08T07:53:23;12.50;99.90
37896;DHT22;23733;53.254;10.430;2023-05-08T07:55:49;12.50;99.90
37896;DHT22;23733;53.254;10.430;2023-05-08T07:58:15;12.40;99.90
37896;DHT22;23733;53.254;10.430;2023-05-08T08:00:41;12.30;99.90
37896;DHT22;23733;53.254;10.430;2023-05-08T08:03:07;12.50;99.90
37896;DHT22;23733;53.254;10.430;2023-05-08T08:05:33;12.60;99.90
37896;DHT22;23733;53.254;10.430;2023-05-08T08:07:59;12.60;99.90
37896;DHT22;23733;53.254;10.430;2023-05-08T08:10:25;12.60;99.90
37896;DHT22;23733;53.254;10.430;2023-05-08T08:12:51;12.60;99.90
37896;DHT22;23733;53.254;10.430;2023-05-08T08:15:18;12.70;99.90
37896;DHT22;23733;53.254;10.430;2023-05-08T08:17:44;12.90;99.90
37896;DHT22;23733;53.254;10.430;2023-05-08T08:20:10;13.00;99.90
37896;DHT22;23733;53.254;10.430;2023-05-08T08:22:36;13.00;99.90
37896;DHT22;23733;53.254;10.430;2023-05-08T08:25:02;12.90;99.90
37896;DHT22;23733;53.254;10.430;2023-05-08T08:27:28;13.00;99.90
37896;DHT22;23733;53.254;10.430;2023-05-08T09:06:48;13.10;99.90
37896;DHT22;23733;53.254;10.430;2023-05-08T09:09:15;14.30;99.90
37896;DHT22;23733;53.254;10.430;2023-05-08T09:11:41;14.30;99.90
37896;DHT22;23733;53.254;10.430;2023-05-08T09:14:08;14.40;99.90
37896;DHT22;23733;53.254;10.430;2023-05-08T09:16:34;14.50;99.90
37896;DHT22;23733;53.254;10.430;2023-05-08T09:19:01;14.70;99.90
37896;DHT22;23733;53.254;10.430;2023-05-08T09:21:27;14.80;99.90
37896;DHT22;23733;53.254;10.430;2023-05-08T09:24:00;14.90;99.90
37896;DHT22;23733;53.254;10.430;2023-05-08T09:29:13;15.00;99.90
37896;DHT22;23733;53.254;10.430;2023-05-08T09:31:45;15.10;99.90
37896;DHT22;23733;53.254;10.430;2023-05-08T09:36:51;15.40;99.90
37896;DHT22;23733;53.254;10.430;2023-05-08T09:39:22;15.50;99.90
37896;DHT22;23733;53.254;10.430;2023-05-08T09:42:04;15.70;99.90
37896;DHT22;23733;53.254;10.430;2023-05-08T09:44:48;15.50;99.90
37896;DHT22;23733;53.254;10.430;2023-05-08T09:47:19;15.70;99.90
37896;DHT22;23733;53.254;10.430;2023-05-08T09:52:22;15.90;99.90
37896;DHT22;23733;53.254;10.430;2023-05-08T09:55:05;15.90;99.90
37896;DHT22;23733;53.254;10.430;2023-05-08T09:57:34;15.90;99.90
37896;DHT22;23733;53.254;10.430;2023-05-08T10:00:08;15.80;99.90
37896;DHT22;23733;53.254;10.430;2023-05-08T10:02:36;15.80;99.90
37896;DHT22;23733;53.254;10.430;2023-05-08T10:05:03;15.80;99.90
37896;DHT22;23733;53.254;10.430;2023-05-08T10:07:32;16.00;99.90
37896;DHT22;23733;53.254;10.430;2023-05-08T10:10:00;16.20;99.90
37896;DHT22;23733;53.254;10.430;2023-05-08T10:12:27;16.30;99.90
37896;DHT22;23733;53.254;10.430;2023-05-08T10:14:53;16.50;99.90
37896;DHT22;23733;53.254;10.430;2023-05-08T10:18:01;16.50;99.90
37896;DHT22;23733;53.254;10.430;2023-05-08T10:20:29;16.50;99.90
37896;DHT22;23733;53.254;10.430;2023-05-08T10:22:56;16.30;99.90
37896;DHT22;23733;53.254;10.430;2023-05-08T10:25:24;16.20;99.90
37896;DHT22;23733;53.254;10.430;2023-05-08T10:28:06;16.40;99.90
37896;DHT22;23733;53.254;10.430;2023-05-08T10:30:38;16.60;99.90
37896;DHT22;23733;53.254;10.430;2023-05-08T10:33:09;16.70;99.90
37896;DHT22;23733;53.254;10.430;2023-05-08T10:35:36;16.70;99.90
37896;DHT22;23733;53.254;10.430;2023-05-08T10:38:03;16.80;99.90
37896;DHT22;23733;53.254;10.430;2023-05-08T10:40:30;16.70;99.90
37896;DHT22;23733;53.254;10.430;2023-05-08T10:42:56;16.70;99.90
37896;DHT22;23733;53.254;10.430;2023-05-08T10:45:23;16.80;99.90
37896;DHT22;23733;53.254;10.430;2023-05-08T10:48:22;16.80;99.90
37896;DHT22;23733;53.254;10.430;2023-05-08T10:53:33;17.00;99.90
37896;DHT22;23733;53.254;10.430;2023-05-08T10:56:01;17.10;99.90
37896;DHT22;23733;53.254;10.430;2023-05-08T10:58:32;17.10;99.90
37896;DHT22;23733;53.254;10.430;2023-05-08T11:03:29;17.10;99.90
37896;DHT22;23733;53.254;10.430;2023-05-08T11:05:57;17.10;99.90
37896;DHT22;23733;53.254;10.430;2023-05-08T11:08:25;17.20;99.90
37896;DHT22;23733;53.254;10.430;2023-05-08T11:13:49;17.20;99.90
37896;DHT22;23733;53.254;10.430;2023-05-08T11:16:17;17.30;99.90
37896;DHT22;23733;53.254;10.430;2023-05-08T11:19:18;17.20;99.90
37896;DHT22;23733;53.254;10.430;2023-05-08T11:24:37;17.60;99.90
37896;DHT22;23733;53.254;10.430;2023-05-08T11:27:03;17.70;99.90
37896;DHT22;23733;53.254;10.430;2023-05-08T11:29:29;17.80;99.90
37896;DHT22;23733;53.254;10.430;2023-05-08T11:31:55;17.90;99.90
37896;DHT22;23733;53.254;10.430;2023-05-08T11:37:10;18.00;99.90
37896;DHT22;23733;53.254;10.430;2023-05-08T11:39:36;18.00;99.90
37896;DHT22;23733;53.254;10.430;2023-05-08T11:45:18;18.00;99.90
37896;DHT22;23733;53.254;10.430;2023-05-08T11:47:44;17.80;99.90
37896;DHT22;23733;53.254;10.430;2023-05-08T11:50:12;17.90;99.90
37896;DHT22;23733;53.254;10.430;2023-05-08T11:52:40;18.10;99.90
37896;DHT22;23733;53.254;10.430;2023-05-08T11:55:08;18.20;99.90
37896;DHT22;23733;53.254;10.430;2023-05-08T11:57:34;18.20;99.90
37896;DHT22;23733;53.254;10.430;2023-05-08T12:00:08;18.30;99.90
37896;DHT22;23733;53.254;10.430;2023-05-08T12:02:40;18.30;99.90
37896;DHT22;23733;53.254;10.430;2023-05-08T12:05:08;18.50;99.90
37896;DHT22;23733;53.254;10.430;2023-05-08T12:07:45;18.30;99.90
37896;DHT22;23733;53.254;10.430;2023-05-08T12:10:12;18.40;99.90
37896;DHT22;23733;53.254;10.430;2023-05-08T12:12:42;18.40;99.90
37896;DHT22;23733;53.254;10.430;2023-05-08T12:15:13;18.50;99.90
37896;DHT22;23733;53.254;10.430;2023-05-08T12:17:40;18.70;99.90
37896;DHT22;23733;53.254;10.430;2023-05-08T12:20:14;18.70;99.90
37896;DHT22;23733;53.254;10.430;2023-05-08T12:22:41;18.70;99.90
37896;DHT22;23733;53.254;10.430;2023-05-08T12:25:09;18.50;99.90
37896;DHT22;23733;53.254;10.430;2023-05-08T12:27:38;18.60;99.90
37896;DHT22;23733;53.254;10.430;2023-05-08T12:30:09;18.60;99.90
37896;DHT22;23733;53.254;10.430;2023-05-08T12:32:36;18.60;99.90
37896;DHT22;23733;53.254;10.430;2023-05-08T12:35:02;18.50;99.90
37896;DHT22;23733;53.254;10.430;2023-05-08T12:37:29;18.50;99.90
37896;DHT22;23733;53.254;10.430;2023-05-08T12:39:55;18.40;99.90
37896;DHT22;23733;53.254;10.430;2023-05-08T12:42:21;18.40;99.90
37896;DHT22;23733;53.254;10.430;2023-05-08T12:44:51;18.40;99.90
37896;DHT22;23733;53.254;10.430;2023-05-08T12:47:18;18.40;99.90
37896;DHT22;23733;53.254;10.430;2023-05-08T12:49:45;18.40;99.90
37896;DHT22;23733;53.254;10.430;2023-05-08T12:52:14;18.40;99.90
37896;DHT22;23733;53.254;10.430;2023-05-08T12:54:47;18.40;99.90
37896;DHT22;23733;53.254;10.430;2023-05-08T12:57:15;18.40;99.90
37896;DHT22;23733;53.254;10.430;2023-05-08T12:59:43;18.40;99.90
37896;DHT22;23733;53.254;10.430;2023-05-08T13:02:19;18.40;99.90
37896;DHT22;23733;53.254;10.430;2023-05-08T13:04:47;18.40;99.90
37896;DHT22;23733;53.254;10.430;2023-05-08T13:07:13;18.40;99.90
37896;DHT22;23733;53.254;10.430;2023-05-08T13:09:39;18.40;99.90
37896;DHT22;23733;53.254;10.430;2023-05-08T13:12:20;18.40;99.90
37896;DHT22;23733;53.254;10.430;2023-05-08T13:14:46;18.50;99.90
37896;DHT22;23733;53.254;10.430;2023-05-08T13:17:16;18.60;99.90
37896;DHT22;23733;53.254;10.430;2023-05-08T13:19:42;18.60;99.90
37896;DHT22;23733;53.254;10.430;2023-05-08T13:22:08;18.70;99.90
37896;DHT22;23733;53.254;10.430;2023-05-08T13:24:34;18.70;99.90
37896;DHT22;23733;53.254;10.430;2023-05-08T13:27:00;18.70;99.90
37896;DHT22;23733;53.254;10.430;2023-05-08T15:09:33;18.60;99.90
37896;DHT22;23733;53.254;10.430;2023-05-08T15:11:59;18.90;99.90
37896;DHT22;23733;53.254;10.430;2023-05-08T15:14:25;18.80;99.90
37896;DHT22;23733;53.254;10.430;2023-05-08T15:16:51;18.80;99.90
37896;DHT22;23733;53.254;10.430;2023-05-08T15:19:17;18.80;99.90
37896;DHT22;23733;53.254;10.430;2023-05-08T15:21:44;18.90;99.90
37896;DHT22;23733;53.254;10.430;2023-05-08T15:24:10;18.90;99.90
37896;DHT22;23733;53.254;10.430;2023-05-08T15:26:36;18.80;99.90
37896;DHT22;23733;53.254;10.430;2023-05-08T15:29:02;18.80;99.90
37896;DHT22;23733;53.254;10.430;2023-05-08T15:31:28;18.70;99.90
37896;DHT22;23733;53.254;10.430;2023-05-08T15:33:54;18.70;99.90
37896;DHT22;23733;53.254;10.430;2023-05-08T15:36:20;18.80;99.90
37896;DHT22;23733;53.254;10.430;2023-05-08T15:38:46;18.80;99.90
37896;DHT22;23733;53.254;10.430;2023-05-08T15:41:13;18.80;99.90
37896;DHT22;23733;53.254;10.430;2023-05-08T15:43:40;18.80;99.90
37896;DHT22;23733;53.254;10.430;2023-05-08T15:46:06;18.70;99.90
37896;DHT22;23733;53.254;10.430;2023-05-08T15:48:32;18.70;99.90
37896;DHT22;23733;53.254;10.430;2023-05-08T18:49:11;18.80;99.90
37896;DHT22;23733;53.254;10.430;2023-05-08T18:51:38;17.10;99.90
37896;DHT22;23733;53.254;10.430;2023-05-08T18:54:04;17.10;99.90
37896;DHT22;23733;53.254;10.430;2023-05-08T18:56:30;17.10;99.90
37896;DHT22;23733;53.254;10.430;2023-05-08T18:58:59;17.00;99.90
37896;DHT22;23733;53.254;10.430;2023-05-08T19:01:25;17.00;99.90
37896;DHT22;23733;53.254;10.430;2023-05-08T19:03:51;17.00;99.90
37896;DHT22;23733;53.254;10.430;2023-05-08T19:06:18;16.90;99.90
37896;DHT22;23733;53.254;10.430;2023-05-08T19:08:44;16.90;99.90
37896;DHT22;23733;53.254;10.430;2023-05-08T19:11:11;16.90;99.90
37896;DHT22;23733;53.254;10.430;2023-05-08T19:13:37;16.80;99.90
37896;DHT22;23733;53.254;10.430;2023-05-08T19:16:04;16.80;99.90
37896;DHT22;23733;53.254;10.430;2023-05-08T19:18:30;16.70;99.90
37896;DHT22;23733;53.254;10.430;2023-05-08T19:20:56;16.70;99.90
37896;DHT22;23733;53.254;10.430;2023-05-08T19:23:22;16.60;99.90
37896;DHT22;23733;53.254;10.430;2023-05-08T19:25:48;16.60;99.90
37896;DHT22;23733;53.254;10.430;2023-05-08T19:28:14;16.60;99.90
37896;DHT22;23733;53.254;10.430;2023-05-08T19:30:40;16.50;99.90
37896;DHT22;23733;53.254;10.430;2023-05-08T19:33:06;16.50;99.90
37896;DHT22;23733;53.254;10.430;2023-05-08T19:35:32;16.40;99.90
37896;DHT22;23733;53.254;10.430;2023-05-08T19:37:58;16.40;99.90
37896;DHT22;23733;53.254;10.430;2023-05-08T19:40:24;16.40;99.90
37896;DHT22;23733;53.254;10.430;2023-05-08T19:42:50;16.30;99.90
37896;DHT22;23733;53.254;10.430;2023-05-08T19:45:16;16.20;99.90
37896;DHT22;23733;53.254;10.430;2023-05-08T19:47:46;16.20;99.90
37896;DHT22;23733;53.254;10.430;2023-05-08T19:50:13;16.10;99.90
37896;DHT22;23733;53.254;10.430;2023-05-08T19:52:46;16.10;99.90
37896;DHT22;23733;53.254;10.430;2023-05-08T19:55:14;16.10;99.90
37896;DHT22;23733;53.254;10.430;2023-05-08T19:57:41;16.10;99.90
37896;DHT22;23733;53.254;10.430;2023-05-08T20:00:07;16.10;99.90
37896;DHT22;23733;53.254;10.430;2023-05-08T20:02:33;16.10;99.90
37896;DHT22;23733;53.254;10.430;2023-05-08T20:04:59;16.00;99.90
37896;DHT22;23733;53.254;10.430;2023-05-08T20:07:25;16.00;99.90
37896;DHT22;23733;53.254;10.430;2023-05-08T20:09:51;16.00;99.90
37896;DHT22;23733;53.254;10.430;2023-05-08T20:12:17;15.90;99.90
37896;DHT22;23733;53.254;10.430;2023-05-08T20:14:43;15.90;99.90
37896;DHT22;23733;53.254;10.430;2023-05-08T20:17:09;15.80;99.90
37896;DHT22;23733;53.254;10.430;2023-05-08T20:19:36;15.80;99.90
37896;DHT22;23733;53.254;10.430;2023-05-08T20:22:02;15.80;99.90
37896;DHT22;23733;53.254;10.430;2023-05-08T20:24:28;15.70;99.90
37896;DHT22;23733;53.254;10.430;2023-05-08T20:26:54;15.70;99.90
37896;DHT22;23733;53.254;10.430;2023-05-08T20:29:24;15.70;99.90
37896;DHT22;23733;53.254;10.430;2023-05-08T20:31:51;15.60;99.90
37896;DHT22;23733;53.254;10.430;2023-05-08T20:34:17;15.50;99.90
37896;DHT22;23733;53.254;10.430;2023-05-08T20:36:44;15.50;99.90
37896;DHT22;23733;53.254;10.430;2023-05-08T20:39:11;15.50;99.90
37896;DHT22;23733;53.254;10.430;2023-05-08T20:41:37;15.40;99.90
37896;DHT22;23733;53.254;10.430;2023-05-08T20:44:03;15.40;99.90
37896;DHT22;23733;53.254;10.430;2023-05-08T20:46:30;15.40;99.90
37896;DHT22;23733;53.254;10.430;2023-05-08T20:48:56;15.30;99.90
37896;DHT22;23733;53.254;10.430;2023-05-08T20:51:24;15.30;99.90
37896;DHT22;23733;53.254;10.430;2023-05-08T21:03:36;15.30;99.90
37896;DHT22;23733;53.254;10.430;2023-05-08T21:06:03;15.10;99.90
37896;DHT22;23733;53.254;10.430;2023-05-08T21:08:29;15.00;99.90
37896;DHT22;23733;53.254;10.430;2023-05-08T21:10:55;14.90;99.90
37896;DHT22;23733;53.254;10.430;2023-05-08T21:13:21;14.90;99.90
37896;DHT22;23733;53.254;10.430;2023-05-08T21:15:48;14.90;99.90
37896;DHT22;23733;53.254;10.430;2023-05-08T21:18:17;14.90;99.90
37896;DHT22;23733;53.254;10.430;2023-05-08T21:20:43;14.90;99.90
37896;DHT22;23733;53.254;10.430;2023-05-08T21:23:16;14.80;99.90
37896;DHT22;23733;53.254;10.430;2023-05-08T21:25:44;14.80;99.90
37896;DHT22;23733;53.254;10.430;2023-05-08T21:28:10;14.80;99.90
37896;DHT22;23733;53.254;10.430;2023-05-08T21:30:36;14.80;99.90
37896;DHT22;23733;53.254;10.430;2023-05-08T21:33:03;14.70;99.90
37896;DHT22;23733;53.254;10.430;2023-05-08T21:35:29;14.70;99.90
37896;DHT22;23733;53.254;10.430;2023-05-08T21:37:55;14.70;99.90
37896;DHT22;23733;53.254;10.430;2023-05-08T21:40:21;14.70;99.90
37896;DHT22;23733;53.254;10.430;2023-05-08T21:42:47;14.70;99.90
37896;DHT22;23733;53.254;10.430;2023-05-08T21:45:13;14.60;99.90
37896;DHT22;23733;53.254;10.430;2023-05-08T21:47:39;14.60;99.90
37896;DHT22;23733;53.254;10.430;2023-05-08T21:50:06;14.60;99.90
37896;DHT22;23733;53.254;10.430;2023-05-08T21:52:32;14.60;99.90
37896;DHT22;23733;53.254;10.430;2023-05-08T21:54:58;14.60;99.90
37896;DHT22;23733;53.254;10.430;2023-05-08T21:57:24;14.50;99.90
37896;DHT22;23733;53.254;10.430;2023-05-08T21:59:50;14.50;99.90
37896;DHT22;23733;53.254;10.430;2023-05-08T22:02:16;14.40;99.90
37896;DHT22;23733;53.254;10.430;2023-05-08T22:04:43;14.40;99.90
37896;DHT22;23733;53.254;10.430;2023-05-08T22:07:09;14.40;99.90
37896;DHT22;23733;53.254;10.430;2023-05-08T22:09:36;14.30;99.90
37896;DHT22;23733;53.254;10.430;2023-05-08T22:12:02;14.30;99.90
37896;DHT22;23733;53.254;10.430;2023-05-08T22:14:28;14.40;99.90
37896;DHT22;23733;53.254;10.430;2023-05-08T22:16:54;14.30;99.90
37896;DHT22;23733;53.254;10.430;2023-05-08T22:19:20;14.30;99.90
37896;DHT22;23733;53.254;10.430;2023-05-08T22:21:46;14.30;99.90